createdAt,value
2022-07-29T00:01:40.426Z,3.15
2022-07-29T00:04:06.669Z,3.22
2022-07-29T00:06:32.882Z,3.20
2022-07-29T00:08:59.067Z,3.25
2022-07-29T00:11:25.227Z,3.35
2022-07-29T00:13:51.409Z,3.33
2022-07-29T00:16:17.689Z,3.58
2022-07-29T00:18:43.944Z,3.70
2022-07-29T00:21:10.097Z,3.50
2022-07-29T00:23:36.947Z,3.90
2022-07-29T00:26:03.231Z,3.40
2022-07-29T00:28:29.423Z,3.78
2022-07-29T00:30:55.592Z,3.92
2022-07-29T00:33:21.781Z,4.28
2022-07-29T00:35:48.018Z,4.13
2022-07-29T00:38:14.199Z,3.72
2022-07-29T00:40:40.384Z,3.90
2022-07-29T00:43:10.169Z,3.85
2022-07-29T00:45:36.333Z,4.22
2022-07-29T00:48:02.516Z,3.70
2022-07-29T00:50:28.738Z,3.63
2022-07-29T00:52:54.898Z,3.65
2022-07-29T00:55:21.074Z,4.13
2022-07-29T00:57:47.277Z,3.88
2022-07-29T01:00:13.457Z,4.10
2022-07-29T01:02:39.688Z,3.83
2022-07-29T01:05:05.968Z,3.90
2022-07-29T01:07:32.124Z,4.65
2022-07-29T01:09:58.388Z,4.20
2022-07-29T01:12:24.565Z,4.30
2022-07-29T01:14:50.732Z,4.20
2022-07-29T01:17:17.000Z,3.88
2022-07-29T01:19:43.155Z,4.57
2022-07-29T01:22:09.354Z,3.70
2022-07-29T01:24:35.526Z,4.15
2022-07-29T01:27:01.720Z,4.53
2022-07-29T01:29:35.877Z,3.70
2022-07-29T01:32:05.285Z,4.45
2022-07-29T01:34:31.475Z,4.43
2022-07-29T01:36:57.745Z,4.32
2022-07-29T01:39:23.935Z,3.80
2022-07-29T01:41:50.104Z,3.78
2022-07-29T01:44:16.560Z,4.13
2022-07-29T01:46:42.984Z,4.22
2022-07-29T01:49:09.206Z,4.25
2022-07-29T01:51:35.416Z,4.38
2022-07-29T01:54:01.598Z,3.88
2022-07-29T01:56:27.758Z,3.65
2022-07-29T01:58:53.949Z,4.05
2022-07-29T02:01:20.132Z,4.25
2022-07-29T02:03:46.409Z,4.00
2022-07-29T02:06:12.572Z,4.40
2022-07-29T02:08:38.783Z,4.40
2022-07-29T02:11:04.974Z,4.30
2022-07-29T02:13:31.135Z,4.00
2022-07-29T02:15:57.453Z,4.10
2022-07-29T02:18:23.660Z,4.80
2022-07-29T02:20:49.899Z,5.20
2022-07-29T02:23:16.112Z,3.90
2022-07-29T02:25:42.348Z,3.90
2022-07-29T02:28:09.059Z,4.15
2022-07-29T02:30:35.252Z,4.00
2022-07-29T02:33:01.397Z,4.13
2022-07-29T02:35:27.588Z,4.28
2022-07-29T02:37:53.894Z,4.18
2022-07-29T02:40:20.053Z,4.28
2022-07-29T02:42:46.258Z,4.68
2022-07-29T02:45:12.434Z,4.13
2022-07-29T02:47:41.448Z,4.32
2022-07-29T02:50:08.172Z,4.75
2022-07-29T02:52:34.402Z,4.55
2022-07-29T02:55:00.598Z,4.57
2022-07-29T02:57:26.758Z,4.03
2022-07-29T02:59:52.921Z,4.63
2022-07-29T03:02:19.202Z,4.50
2022-07-29T03:04:45.469Z,4.55
2022-07-29T03:07:11.733Z,4.50
2022-07-29T03:09:40.661Z,4.72
2022-07-29T03:12:06.863Z,4.60
2022-07-29T03:14:33.058Z,4.55
2022-07-29T03:16:59.243Z,4.90
2022-07-29T03:19:25.407Z,4.53
2022-07-29T03:21:51.592Z,4.75
2022-07-29T03:24:18.087Z,4.70
2022-07-29T03:26:44.547Z,4.47
2022-07-29T03:29:10.721Z,4.65
2022-07-29T03:31:39.765Z,4.60
2022-07-29T03:34:09.839Z,4.65
2022-07-29T03:36:36.015Z,4.70
2022-07-29T03:39:02.194Z,5.28
2022-07-29T03:41:28.412Z,4.53
2022-07-29T03:43:54.624Z,4.70
2022-07-29T03:46:20.880Z,4.97
2022-07-29T03:48:47.103Z,5.10
2022-07-29T03:51:13.318Z,4.72
2022-07-29T03:53:39.505Z,5.13
2022-07-29T03:56:05.700Z,4.72
2022-07-29T03:58:31.872Z,5.40
2022-07-29T04:00:58.330Z,5.07
2022-07-29T04:03:24.612Z,5.20
2022-07-29T04:05:50.811Z,4.90
2022-07-29T04:08:17.008Z,5.05
2022-07-29T04:10:43.166Z,5.03
2022-07-29T04:13:09.381Z,5.55
2022-07-29T04:15:35.578Z,5.35
2022-07-29T04:18:01.806Z,5.20
2022-07-29T04:20:27.990Z,5.05
2022-07-29T04:22:54.158Z,5.32
2022-07-29T04:25:20.343Z,5.32
2022-07-29T04:27:46.510Z,5.45
2022-07-29T04:30:12.736Z,5.53
2022-07-29T04:32:38.927Z,5.63
2022-07-29T04:35:05.087Z,5.15
2022-07-29T04:37:31.251Z,5.95
2022-07-29T04:39:57.458Z,5.25
2022-07-29T04:42:27.625Z,5.35
2022-07-29T04:44:55.451Z,5.20
2022-07-29T04:47:21.624Z,5.05
2022-07-29T04:49:47.829Z,5.35
2022-07-29T04:52:14.046Z,5.95
2022-07-29T04:54:40.200Z,5.55
2022-07-29T04:57:06.361Z,5.25
2022-07-29T04:59:32.560Z,5.70
2022-07-29T05:01:58.760Z,6.00
2022-07-29T05:04:25.040Z,5.88
2022-07-29T05:06:51.398Z,5.30
2022-07-29T05:09:17.598Z,5.50
2022-07-29T05:11:43.792Z,4.93
2022-07-29T05:14:09.946Z,5.25
2022-07-29T05:16:36.115Z,6.53
2022-07-29T05:19:02.327Z,5.47
2022-07-29T05:21:28.525Z,5.47
2022-07-29T05:23:54.689Z,5.78
2022-07-29T05:26:20.910Z,5.53
2022-07-29T05:28:47.162Z,5.35
2022-07-29T05:31:13.358Z,4.63
2022-07-29T05:33:39.632Z,4.80
2022-07-29T05:36:05.794Z,5.80
2022-07-29T05:38:31.957Z,5.05
2022-07-29T05:40:58.145Z,5.20
2022-07-29T05:43:24.335Z,5.07
2022-07-29T05:45:50.598Z,4.90
2022-07-29T05:48:16.857Z,4.80
2022-07-29T05:50:44.185Z,4.47
2022-07-29T05:53:19.192Z,4.80
2022-07-29T05:55:46.820Z,4.40
2022-07-29T05:58:13.422Z,4.63
2022-07-29T06:00:39.601Z,4.40
2022-07-29T06:03:05.768Z,4.30
2022-07-29T06:05:31.929Z,5.22
2022-07-29T06:07:58.128Z,4.55
2022-07-29T06:10:26.989Z,4.30
2022-07-29T06:12:53.357Z,4.45
2022-07-29T06:15:19.562Z,4.35
2022-07-29T06:18:00.524Z,4.65
2022-07-29T06:20:27.639Z,4.82
2022-07-29T06:22:53.790Z,4.28
2022-07-29T06:25:19.942Z,4.28
2022-07-29T06:27:46.126Z,4.47
2022-07-29T06:30:12.302Z,3.83
2022-07-29T06:32:42.929Z,3.80
2022-07-29T06:37:55.650Z,3.85
2022-07-29T06:40:25.887Z,3.92
2022-07-29T06:42:52.120Z,3.97
2022-07-29T06:45:18.319Z,4.28
2022-07-29T06:47:47.247Z,3.42
2022-07-29T06:50:13.452Z,4.50
2022-07-29T06:52:39.649Z,4.00
2022-07-29T06:55:05.858Z,4.20
2022-07-29T06:57:44.233Z,4.13
2022-07-29T07:00:10.430Z,4.25
2022-07-29T07:02:37.146Z,3.80
2022-07-29T07:05:03.373Z,4.30
2022-07-29T07:07:29.555Z,3.78
2022-07-29T07:09:55.748Z,3.92
2022-07-29T07:12:21.916Z,3.80
2022-07-29T07:14:48.114Z,3.78
2022-07-29T07:17:14.312Z,4.25
2022-07-29T07:19:40.511Z,4.22
2022-07-29T07:22:09.030Z,3.63
2022-07-29T07:24:35.338Z,4.25
2022-07-29T07:27:01.601Z,4.15
2022-07-29T07:29:27.820Z,4.30
2022-07-29T07:31:58.832Z,4.40
2022-07-29T07:34:29.459Z,4.78
2022-07-29T07:36:56.091Z,4.10
2022-07-29T07:39:22.322Z,4.43
2022-07-29T07:41:48.491Z,5.10
2022-07-29T07:44:16.195Z,4.38
2022-07-29T07:46:42.550Z,4.60
2022-07-29T07:49:09.172Z,4.60
2022-07-29T07:51:37.429Z,4.63
2022-07-29T07:54:03.643Z,4.78
2022-07-29T07:56:35.050Z,4.75
2022-07-29T07:59:01.539Z,4.65
2022-07-29T08:01:27.818Z,4.40
2022-07-29T08:03:54.063Z,5.00
2022-07-29T08:06:20.247Z,5.10
2022-07-29T08:08:51.886Z,4.88
2022-07-29T08:11:21.334Z,5.00
2022-07-29T08:13:58.055Z,4.90
2022-07-29T08:16:26.727Z,4.60
2022-07-29T08:19:15.549Z,5.03
2022-07-29T08:24:25.916Z,5.03
2022-07-29T08:26:52.195Z,4.60
2022-07-29T08:29:20.534Z,5.00
2022-07-29T08:31:50.046Z,4.68
2022-07-29T08:34:16.451Z,5.68
2022-07-29T08:36:42.678Z,4.78
2022-07-29T08:39:08.934Z,4.80
2022-07-29T08:41:35.159Z,5.18
2022-07-29T08:44:01.385Z,5.10
2022-07-29T08:46:27.610Z,4.88
2022-07-29T08:48:53.824Z,4.95
2022-07-29T08:51:20.195Z,4.80
2022-07-29T08:53:46.513Z,5.05
2022-07-29T08:56:17.592Z,4.72
2022-07-29T08:58:54.257Z,5.63
2022-07-29T09:01:20.585Z,5.40
2022-07-29T09:03:54.277Z,5.60
2022-07-29T09:09:05.375Z,5.80
2022-07-29T09:13:57.885Z,5.13
2022-07-29T09:16:50.830Z,5.38
2022-07-29T09:19:18.002Z,5.00
2022-07-29T09:21:53.060Z,5.32
2022-07-29T09:24:20.732Z,4.90
2022-07-29T09:26:49.834Z,4.10
2022-07-29T09:29:16.056Z,4.68
2022-07-29T09:31:42.364Z,5.15
2022-07-29T09:34:08.645Z,4.63
2022-07-29T09:36:37.647Z,4.45
2022-07-29T09:39:03.884Z,4.45
2022-07-29T09:44:13.036Z,4.10
2022-07-29T09:46:40.326Z,4.65
2022-07-29T09:49:06.671Z,4.60
2022-07-29T09:51:38.473Z,4.80
2022-07-29T09:54:04.908Z,5.07
2022-07-29T09:56:39.127Z,5.18
2022-07-29T09:59:08.505Z,4.97
2022-07-29T10:01:34.746Z,5.35
2022-07-29T10:04:01.202Z,4.53
2022-07-29T10:06:41.540Z,4.68
2022-07-29T10:09:07.837Z,4.63
2022-07-29T10:11:48.364Z,4.97
2022-07-29T10:14:15.640Z,4.95
2022-07-29T10:16:44.205Z,4.80
2022-07-29T10:19:10.507Z,4.45
2022-07-29T10:21:36.866Z,4.40
2022-07-29T10:24:05.900Z,4.70
2022-07-29T10:26:39.598Z,4.88
2022-07-29T10:29:05.912Z,4.78
2022-07-29T10:31:33.773Z,4.50
2022-07-29T10:34:01.465Z,4.20
2022-07-29T10:36:27.709Z,4.60
2022-07-29T10:39:04.466Z,5.20
2022-07-29T10:41:43.932Z,4.55
2022-07-29T10:44:16.104Z,4.57
2022-07-29T10:46:46.618Z,4.65
2022-07-29T10:49:15.208Z,4.50
2022-07-29T10:54:22.006Z,4.75
2022-07-29T10:56:48.275Z,4.15
2022-07-29T10:59:16.916Z,4.43
2022-07-29T11:01:46.411Z,4.40
2022-07-29T11:04:18.630Z,3.97
2022-07-29T11:06:49.110Z,4.47
2022-07-29T11:09:15.324Z,4.20
2022-07-29T11:11:43.953Z,4.95
2022-07-29T11:14:14.088Z,4.43
2022-07-29T11:16:40.330Z,4.20
2022-07-29T11:19:07.575Z,4.78
2022-07-29T11:21:51.666Z,4.65
2022-07-29T11:24:28.942Z,4.53
2022-07-29T11:27:00.522Z,4.88
2022-07-29T11:29:26.993Z,4.70
2022-07-29T11:31:53.801Z,5.00
2022-07-29T11:34:21.288Z,4.35
2022-07-29T11:36:48.817Z,4.57
2022-07-29T11:39:15.203Z,4.30
2022-07-29T11:41:41.418Z,4.82
2022-07-29T11:44:09.164Z,4.30
2022-07-29T11:46:35.348Z,5.07
2022-07-29T11:49:02.303Z,4.63
2022-07-29T11:51:35.516Z,4.82
2022-07-29T11:54:05.456Z,3.97
2022-07-29T11:56:39.151Z,4.35
2022-07-29T11:59:08.477Z,4.00
2022-07-29T12:01:34.816Z,4.68
2022-07-29T12:04:01.082Z,4.35
2022-07-29T12:06:27.350Z,4.80
2022-07-29T12:08:53.579Z,4.63
2022-07-29T12:11:21.323Z,4.57
2022-07-29T12:13:49.237Z,4.65
2022-07-29T12:16:15.973Z,4.70
2022-07-29T12:18:44.973Z,4.55
2022-07-29T12:21:12.553Z,4.10
2022-07-29T12:23:39.000Z,4.60
2022-07-29T12:26:05.216Z,4.72
2022-07-29T12:28:33.972Z,3.97
2022-07-29T12:31:01.263Z,4.35
2022-07-29T12:33:28.248Z,4.05
2022-07-29T12:36:14.167Z,4.20
2022-07-29T12:38:43.849Z,4.22
2022-07-29T12:41:10.017Z,3.63
2022-07-29T12:43:36.215Z,3.92
2022-07-29T12:46:02.451Z,3.90
2022-07-29T12:48:28.636Z,4.45
2022-07-29T12:50:54.892Z,4.20
2022-07-29T12:53:21.105Z,4.10
2022-07-29T12:55:47.522Z,4.35
2022-07-29T12:58:13.805Z,4.55
2022-07-29T13:00:41.057Z,3.97
2022-07-29T13:03:08.086Z,4.35
2022-07-29T13:05:34.281Z,4.50
2022-07-29T13:08:00.493Z,4.60
2022-07-29T13:10:26.799Z,4.20
2022-07-29T13:12:53.062Z,4.28
2022-07-29T13:15:19.236Z,4.20
2022-07-29T13:17:45.435Z,4.53
2022-07-29T13:20:14.248Z,3.88
2022-07-29T13:22:40.451Z,4.00
2022-07-29T13:25:06.621Z,4.20
2022-07-29T13:27:32.827Z,4.00
2022-07-29T13:29:59.018Z,4.30
2022-07-29T13:32:27.844Z,4.22
2022-07-29T13:34:54.748Z,4.03
2022-07-29T13:37:20.906Z,5.07
2022-07-29T13:39:51.315Z,4.10
2022-07-29T13:42:19.486Z,4.22
2022-07-29T13:44:45.668Z,4.35
2022-07-29T13:47:11.855Z,4.00
2022-07-29T13:49:40.104Z,4.50
2022-07-29T13:52:06.323Z,4.20
2022-07-29T13:54:38.817Z,4.25
2022-07-29T13:57:08.022Z,4.30
2022-07-29T13:59:34.497Z,4.35
2022-07-29T14:02:04.874Z,4.10
2022-07-29T14:10:05.707Z,4.13
2022-07-29T14:18:15.577Z,3.53
2022-07-29T14:23:30.621Z,3.63
2022-07-29T14:28:47.331Z,3.50
2022-07-29T14:31:19.828Z,3.60
2022-07-29T14:33:49.151Z,3.95
2022-07-29T14:37:15.784Z,3.53
2022-07-29T14:44:28.670Z,3.58
2022-07-29T14:46:54.924Z,3.47
2022-07-29T14:49:23.396Z,3.25
2022-07-29T14:51:49.608Z,3.60
2022-07-29T14:54:16.949Z,3.15
2022-07-29T14:56:46.651Z,3.22
2022-07-29T14:59:23.470Z,3.63
2022-07-29T15:01:57.200Z,2.80
2022-07-29T15:04:23.626Z,2.80
2022-07-29T15:12:14.555Z,2.70
2022-07-29T15:17:13.561Z,2.90
2022-07-29T15:19:45.031Z,2.60
2022-07-29T15:22:11.342Z,2.85
2022-07-29T15:24:37.578Z,3.08
2022-07-29T15:27:03.821Z,2.92
2022-07-29T15:29:30.026Z,2.50
2022-07-29T15:31:56.703Z,2.80
2022-07-29T15:34:27.381Z,2.78
2022-07-29T15:36:54.126Z,2.80
2022-07-29T15:39:20.511Z,2.47
2022-07-29T15:41:46.723Z,2.78
2022-07-29T15:44:19.675Z,2.80
2022-07-29T15:46:48.659Z,2.58
2022-07-29T15:49:16.073Z,2.58
2022-07-29T15:51:44.557Z,2.10
2022-07-29T15:54:10.852Z,2.47
2022-07-29T15:56:38.503Z,2.65
2022-07-29T15:59:04.768Z,2.50
2022-07-29T16:01:31.176Z,7.57
2022-07-29T16:03:58.903Z,2.97
2022-07-29T16:06:25.167Z,3.00
2022-07-29T16:08:51.393Z,3.03
2022-07-29T16:11:17.649Z,2.25
2022-07-29T16:13:44.062Z,2.38
2022-07-29T16:16:12.637Z,2.00
2022-07-29T16:21:19.118Z,2.38
2022-07-29T16:23:54.140Z,2.70
2022-07-29T16:26:26.655Z,2.65
2022-07-29T16:28:54.402Z,2.70
2022-07-29T16:31:21.049Z,2.63
2022-07-29T16:34:09.875Z,2.70
2022-07-29T16:36:36.525Z,2.15
2022-07-29T16:39:02.751Z,3.00
2022-07-29T16:41:36.193Z,2.47
2022-07-29T16:44:02.470Z,1.90
2022-07-29T16:49:11.862Z,2.05
2022-07-29T16:51:45.018Z,2.50
2022-07-29T16:54:11.229Z,2.13
2022-07-29T16:56:37.543Z,2.00
2022-07-29T16:59:03.783Z,1.90
2022-07-29T17:01:32.917Z,2.28
2022-07-29T17:04:00.480Z,1.83
2022-07-29T17:06:27.015Z,1.83
2022-07-29T17:08:53.546Z,2.30
2022-07-29T17:11:19.871Z,2.05
2022-07-29T17:13:46.045Z,2.00
2022-07-29T17:16:12.576Z,1.90
2022-07-29T17:18:38.833Z,2.08
2022-07-29T17:21:05.061Z,2.10
2022-07-29T17:23:31.222Z,2.10
2022-07-29T17:25:57.384Z,2.00
2022-07-29T17:28:23.949Z,1.90
2022-07-29T17:30:50.435Z,1.98
2022-07-29T17:33:16.619Z,1.95
2022-07-29T17:35:42.839Z,1.80
2022-07-29T17:38:08.994Z,1.83
2022-07-29T17:40:38.185Z,1.70
2022-07-29T17:43:04.352Z,1.88
2022-07-29T17:45:48.753Z,1.70
2022-07-29T17:48:16.722Z,1.95
2022-07-29T17:50:45.728Z,2.85
2022-07-29T17:53:16.224Z,1.70
2022-07-29T17:55:45.136Z,2.00
2022-07-29T17:58:18.743Z,2.00
2022-07-29T18:00:45.034Z,1.70
2022-07-29T18:03:11.423Z,2.45
2022-07-29T18:05:39.537Z,1.95
2022-07-29T18:08:11.366Z,2.08
2022-07-29T18:10:46.571Z,1.85
2022-07-29T18:13:19.953Z,1.90
2022-07-29T18:15:46.313Z,1.88
2022-07-29T18:18:12.620Z,2.40
2022-07-29T18:20:38.883Z,2.60
2022-07-29T18:23:07.235Z,2.40
2022-07-29T18:25:33.495Z,2.60
2022-07-29T18:39:33.250Z,2.95
2022-07-29T18:41:59.547Z,2.58
2022-07-29T18:44:28.535Z,2.80
2022-07-29T18:46:55.033Z,2.92
2022-07-29T18:49:21.467Z,2.80
2022-07-29T18:51:47.765Z,2.85
2022-07-29T18:54:15.253Z,3.40
2022-07-29T18:56:45.028Z,3.45
2022-07-29T18:59:16.057Z,2.97
2022-07-29T19:01:42.448Z,3.00
2022-07-29T19:04:10.695Z,3.17
2022-07-29T19:06:37.007Z,3.05
2022-07-29T19:11:56.303Z,3.47
2022-07-29T19:14:24.486Z,3.60
2022-07-29T19:16:54.507Z,3.90
2022-07-29T19:19:20.713Z,3.20
2022-07-29T19:21:47.138Z,3.83
2022-07-29T19:24:15.588Z,3.55
2022-07-29T19:26:44.186Z,3.75
2022-07-29T19:29:10.381Z,4.25
2022-07-29T19:31:36.688Z,4.47
2022-07-29T19:34:02.894Z,3.83
2022-07-29T19:36:29.079Z,3.90
2022-07-29T19:38:55.403Z,3.63
2022-07-29T19:41:21.604Z,4.15
2022-07-29T19:43:53.133Z,3.85
2022-07-29T19:46:19.627Z,3.50
2022-07-29T19:48:49.580Z,3.53
2022-07-29T19:51:28.845Z,3.33
2022-07-29T20:02:20.267Z,3.50
2022-07-29T20:04:49.456Z,3.67
2022-07-29T20:07:18.414Z,3.72
2022-07-29T20:09:46.623Z,3.70
2022-07-29T20:12:23.502Z,3.80
2022-07-29T20:14:49.765Z,3.40
2022-07-29T20:17:29.206Z,3.42
2022-07-29T20:19:58.934Z,3.58
2022-07-29T20:22:25.316Z,3.28
2022-07-29T20:24:51.600Z,3.90
2022-07-29T20:27:17.930Z,3.95
2022-07-29T20:29:44.484Z,3.90
2022-07-29T20:32:10.732Z,3.95
2022-07-29T20:34:44.132Z,4.30
2022-07-29T20:37:17.987Z,4.75
2022-07-29T20:39:45.570Z,5.10
2022-07-29T20:42:12.746Z,4.93
2022-07-29T20:44:38.975Z,5.40
2022-07-29T20:47:05.223Z,4.75
2022-07-29T20:49:31.422Z,5.53
2022-07-29T20:51:57.719Z,4.43
2022-07-29T20:54:23.957Z,4.50
2022-07-29T20:56:51.603Z,4.68
2022-07-29T20:59:17.979Z,4.53
2022-07-29T21:01:44.229Z,4.75
2022-07-29T21:04:10.506Z,4.97
2022-07-29T21:06:36.716Z,4.68
2022-07-29T21:09:02.964Z,4.38
2022-07-29T21:11:44.463Z,4.88
2022-07-29T21:14:11.268Z,4.80
2022-07-29T21:16:37.476Z,5.07
2022-07-29T21:19:03.776Z,4.82
2022-07-29T21:21:29.981Z,4.45
2022-07-29T21:23:56.246Z,4.65
2022-07-29T21:26:24.547Z,4.45
2022-07-29T21:28:50.794Z,4.28
2022-07-29T21:31:17.044Z,4.55
2022-07-29T21:33:43.249Z,3.58
2022-07-29T21:36:44.008Z,4.47
2022-07-29T21:38:55.681Z,3.90
2022-07-29T21:41:24.136Z,4.22
2022-07-29T21:43:50.331Z,4.60
2022-07-29T21:46:16.652Z,4.05
2022-07-29T21:48:44.690Z,4.13
2022-07-29T21:51:11.060Z,5.43
2022-07-29T21:53:37.290Z,4.38
2022-07-29T21:56:06.138Z,4.93
2022-07-29T21:58:35.665Z,5.03
2022-07-29T22:01:05.962Z,4.35
2022-07-29T22:03:32.235Z,5.22
2022-07-29T22:05:58.507Z,5.63
2022-07-29T22:08:25.890Z,5.22
2022-07-29T22:10:52.058Z,5.47
2022-07-29T22:13:18.298Z,5.10
2022-07-29T22:15:47.204Z,5.50
2022-07-29T22:18:13.586Z,5.22
2022-07-29T22:20:46.715Z,5.15
2022-07-29T22:23:14.278Z,5.00
2022-07-29T22:25:47.718Z,5.28
2022-07-29T22:28:13.978Z,4.82
2022-07-29T22:30:43.346Z,5.22
2022-07-29T22:33:09.568Z,5.30
2022-07-29T22:35:43.781Z,5.13
2022-07-29T22:38:09.951Z,5.53
2022-07-29T22:40:36.115Z,5.68
2022-07-29T22:43:02.437Z,6.20
2022-07-29T22:45:28.644Z,6.28
2022-07-29T22:47:59.205Z,5.25
2022-07-29T22:50:25.748Z,5.30
2022-07-29T22:52:51.934Z,4.88
2022-07-29T22:55:18.131Z,5.13
2022-07-29T22:57:44.312Z,4.90
2022-07-29T23:00:10.509Z,5.13
2022-07-29T23:02:36.730Z,4.97
2022-07-29T23:05:02.957Z,5.38
2022-07-29T23:07:29.140Z,4.55
2022-07-29T23:09:55.326Z,5.38
2022-07-29T23:12:21.481Z,5.20
2022-07-29T23:14:47.666Z,4.85
2022-07-29T23:17:13.925Z,5.05
2022-07-29T23:19:40.163Z,5.38
2022-07-29T23:22:06.338Z,5.75
2022-07-29T23:24:32.507Z,5.40
2022-07-29T23:26:58.977Z,5.32
2022-07-29T23:29:25.760Z,5.40
2022-07-29T23:31:51.941Z,6.25
2022-07-29T23:34:18.112Z,5.55
2022-07-29T23:36:44.297Z,6.25
2022-07-29T23:39:10.507Z,5.03
2022-07-29T23:41:36.687Z,5.43
2022-07-29T23:44:02.899Z,5.03
2022-07-29T23:46:29.064Z,5.03
2022-07-29T23:48:55.301Z,5.20
2022-07-29T23:51:21.501Z,4.85
2022-07-29T23:53:53.773Z,5.40
2022-07-29T23:56:20.529Z,5.45
2022-07-29T23:58:46.824Z,5.28
